Map

Track Data

SID SEASON NUMBER BASIN SUBBASIN NAME ISO_TIME NATURE LAT LON WMO_WIND WMO_PRES WMO_AGENCY TRACK_TYPE DIST2LAND LANDFALL IFLAG USA_AGENCY USA_ATCF_ID USA_LAT USA_LON USA_RECORD USA_STATUS USA_WIND USA_PRES USA_SSHS USA_R34_NE USA_R34_SE USA_R34_SW USA_R34_NW USA_R50_NE USA_R50_SE USA_R50_SW USA_R50_NW USA_R64_NE USA_R64_SE USA_R64_SW USA_R64_NW USA_POCI USA_ROCI USA_RMW USA_EYE TOKYO_LAT TOKYO_LON TOKYO_GRADE TOKYO_WIND TOKYO_PRES TOKYO_R50_DIR TOKYO_R50_LONG TOKYO_R50_SHORT TOKYO_R30_DIR TOKYO_R30_LONG TOKYO_R30_SHORT TOKYO_LAND CMA_LAT CMA_LON CMA_CAT CMA_WIND CMA_PRES HKO_LAT HKO_LON HKO_CAT HKO_WIND HKO_PRES NEWDELHI_LAT NEWDELHI_LON NEWDELHI_GRADE NEWDELHI_WIND NEWDELHI_PRES NEWDELHI_CI NEWDELHI_DP NEWDELHI_POCI REUNION_LAT REUNION_LON REUNION_TYPE REUNION_WIND REUNION_PRES REUNION_TNUM REUNION_CI REUNION_RMW REUNION_R34_NE REUNION_R34_SE REUNION_R34_SW REUNION_R34_NW REUNION_R50_NE REUNION_R50_SE REUNION_R50_SW REUNION_R50_NW REUNION_R64_NE REUNION_R64_SE REUNION_R64_SW REUNION_R64_NW BOM_LAT BOM_LON BOM_TYPE BOM_WIND BOM_PRES BOM_TNUM BOM_CI BOM_RMW BOM_R34_NE BOM_R34_SE BOM_R34_SW BOM_R34_NW BOM_R50_NE BOM_R50_SE BOM_R50_SW BOM_R50_NW BOM_R64_NE BOM_R64_SE BOM_R64_SW BOM_R64_NW BOM_ROCI BOM_POCI BOM_EYE BOM_POS_METHOD BOM_PRES_METHOD NADI_LAT NADI_LON NADI_CAT NADI_WIND NADI_PRES WELLINGTON_LAT WELLINGTON_LON WELLINGTON_WIND WELLINGTON_PRES DS824_LAT DS824_LON DS824_STAGE DS824_WIND DS824_PRES TD9636_LAT TD9636_LON TD9636_STAGE TD9636_WIND TD9636_PRES TD9635_LAT TD9635_LON TD9635_WIND TD9635_PRES TD9635_ROCI NEUMANN_LAT NEUMANN_LON NEUMANN_CLASS NEUMANN_WIND NEUMANN_PRES MLC_LAT MLC_LON MLC_CLASS MLC_WIND MLC_PRES USA_GUST BOM_GUST BOM_GUST_PER REUNION_GUST REUNION_GUST_PER USA_SEAHGT USA_SEARAD_NE USA_SEARAD_SE USA_SEARAD_SW USA_SEARAD_NW STORM_SPEED STORM_DIR
1927088S18112 1927 20 SI WA NOT_NAMED 1927-03-29 01:00:00 NR -18.0000 111.600 995 bom main 503 498 ______O_______ -1 -18.0000 111.600 995 4 7 245
1927088S18112 1927 20 SI WA NOT_NAMED 1927-03-29 03:00:00 NR -18.1043 111.364 main 504 506 ______P_______ -1 -18.1043 111.364 7 245
1927088S18112 1927 20 SI WA NOT_NAMED 1927-03-29 06:00:00 NR -18.2661 111.011 main 510 510 ______P_______ -1 -18.2661 111.011 7 243
1927088S18112 1927 20 SI WA NOT_NAMED 1927-03-29 09:00:00 NR -18.4423 110.663 main 521 519 ______P_______ -1 -18.4423 110.663 8 240
1927088S18112 1927 20 SI WA NOT_NAMED 1927-03-29 12:00:00 NR -18.6419 110.322 main 533 526 ______P_______ -1 -18.6419 110.322 8 236
1927088S18112 1927 20 SI WA NOT_NAMED 1927-03-29 15:00:00 NR -18.8740 109.991 main 535 535 ______P_______ -1 -18.8740 109.991 8 230
1927088S18112 1927 20 SI WA NOT_NAMED 1927-03-29 18:00:00 NR -19.1478 109.674 main 546 539 ______P_______ -1 -19.1478 109.674 8 224
1927088S18112 1927 20 SI WA NOT_NAMED 1927-03-29 21:00:00 NR -19.4724 109.372 main 548 548 ______P_______ -1 -19.4724 109.372 9 218
1927088S18112 1927 20 SI WA NOT_NAMED 1927-03-30 00:00:00 NR -19.8569 109.090 main 555 555 ______P_______ -1 -19.8569 109.090 10 214
1927088S18112 1927 20 SI WA NOT_NAMED 1927-03-30 01:00:00 NR -20.0000 109.000 bom main 558 550 ______O_______ -1 -20.0000 109.000 10 208
1927088S18112 1927 20 SI WA NOT_NAMED 1927-03-30 03:00:00 NR -20.3096 108.828 main 559 549 ______P_______ -1 -20.3096 108.828 11 205
1927088S18112 1927 20 SI WA NOT_NAMED 1927-03-30 06:00:00 NR -20.8278 108.593 main 554 548 ______P_______ -1 -20.8278 108.593 12 201
1927088S18112 1927 20 SI WA NOT_NAMED 1927-03-30 09:00:00 NR -21.4018 108.387 main 552 549 ______P_______ -1 -21.4018 108.387 13 196
1927088S18112 1927 20 SI WA NOT_NAMED 1927-03-30 12:00:00 NR -22.0217 108.215 main 559 555 ______P_______ -1 -22.0217 108.215 13 192
1927088S18112 1927 20 SI WA NOT_NAMED 1927-03-30 15:00:00 NR -22.6778 108.084 main 564 559 ______P_______ -1 -22.6778 108.084 14 189
1927088S18112 1927 20 SI WA NOT_NAMED 1927-03-30 18:00:00 NR -23.3601 107.997 main 559 548 ______P_______ -1 -23.3601 107.997 14 185
1927088S18112 1927 20 SI WA NOT_NAMED 1927-03-30 21:00:00 NR -24.0591 107.961 main 548 546 ______P_______ -1 -24.0591 107.961 14 181
1927088S18112 1927 20 SI WA NOT_NAMED 1927-03-31 00:00:00 NR -24.7649 107.980 main 547 545 ______P_______ -1 -24.7649 107.980 14 177
1927088S18112 1927 20 SI WA NOT_NAMED 1927-03-31 01:00:00 NR -25.0000 108.000 bom main 545 524 ______O_______ -1 -25.0000 108.000 14 175
1927088S18112 1927 20 SI WA NOT_NAMED 1927-03-31 03:00:00 NR -25.4684 108.061 main 524 508 ______P_______ -1 -25.4684 108.061 14 171
1927088S18112 1927 20 SI WA NOT_NAMED 1927-03-31 06:00:00 NR -26.1663 108.200 main 508 489 ______P_______ -1 -26.1663 108.200 14 168
1927088S18112 1927 20 SI WA NOT_NAMED 1927-03-31 09:00:00 NR -26.8596 108.392 main 491 481 ______P_______ -1 -26.8596 108.392 14 165
1927088S18112 1927 20 SI WA NOT_NAMED 1927-03-31 12:00:00 NR -27.5487 108.629 main 484 478 ______P_______ -1 -27.5487 108.629 15 162
1927088S18112 1927 20 SI WA NOT_NAMED 1927-03-31 15:00:00 NR -28.2342 108.904 main 483 479 ______P_______ -1 -28.2342 108.904 15 159
1927088S18112 1927 20 SI WA NOT_NAMED 1927-03-31 18:00:00 NR -28.9167 109.210 main 494 480 ______P_______ -1 -28.9167 109.210 15 158
1927088S18112 1927 20 SI WA NOT_NAMED 1927-03-31 21:00:00 NR -29.5966 109.539 main 486 476 ______P_______ -1 -29.5966 109.539 15 157
1927088S18112 1927 20 SI WA NOT_NAMED 1927-04-01 00:00:00 NR -30.2745 109.883 main 483 478 ______P_______ -1 -30.2745 109.883 15 156
1927088S18112 1927 20 SI WA NOT_NAMED 1927-04-01 01:00:00 NR -30.5000 110.000 bom main 482 ______O_______ -1 -30.5000 110.000 15 158

About IBTrACS Database

This database is a web-friendly format of International Best Track Archive for Climate Stewardship (IBTrACS), a global best track data archive curated by NOAA dating back to 1842.

Updated: 2021-10-08